South Beloit, Illinois
Current Conditions -  °F | °C
As of 3:45 PM on Friday 24 Oct 2014 (Local Time) from KJVL Reporting Station
Broken Clouds Broken Clouds  
Wind Chill: 61°   Ceiling: 9000
Heat Index: 61°   Visibility: 10mi
Dew Point: 52°   Wind: 8mph
Humidity: 72%   Direction: 230°SW
Pressure: 29.95"   Gusts: NA
Location:  42.49°N, 89.04°W
Report Text: KJVL 242045Z 23007KT 10SM BKN090 16/11 A2995
Loading
Personal Weather Stations






























Interactive Weather Map
Tropical Storm Tracking
New forecast layout! Learn more

10-Day Weather Forecast

Advertisements
Track Severe Weather on mobile